createdAt,value
2019-05-23T00:02:30.385Z,6.77
2019-05-23T00:05:19.529Z,7.53
2019-05-23T00:07:49.470Z,7.00
2019-05-23T00:10:23.322Z,7.27
2019-05-23T00:12:55.103Z,7.30
2019-05-23T00:15:32.516Z,7.70
2019-05-23T00:18:03.806Z,7.73
2019-05-23T00:20:34.274Z,7.03
2019-05-23T00:23:05.324Z,7.33
2019-05-23T00:25:36.940Z,10.40
2019-05-23T00:28:08.939Z,6.67
2019-05-23T00:30:40.371Z,8.30
2019-05-23T00:33:11.484Z,6.60
2019-05-23T00:35:42.046Z,6.93
2019-05-23T00:38:14.464Z,6.53
2019-05-23T00:40:46.531Z,8.03
2019-05-23T00:43:16.459Z,8.47
2019-05-23T00:45:46.288Z,6.43
2019-05-23T00:48:17.380Z,7.70
2019-05-23T00:50:48.936Z,7.97
2019-05-23T00:53:19.209Z,7.77
2019-05-23T00:55:49.514Z,7.53
2019-05-23T00:58:19.826Z,7.67
2019-05-23T01:00:49.367Z,7.77
2019-05-23T01:03:19.620Z,9.53
2019-05-23T01:05:50.013Z,8.10
2019-05-23T01:08:21.192Z,8.80
2019-05-23T01:10:51.918Z,8.70
2019-05-23T01:13:23.089Z,7.83
2019-05-23T01:15:53.469Z,9.07
2019-05-23T01:18:26.020Z,7.90
2019-05-23T01:20:59.806Z,7.17
2019-05-23T01:23:38.049Z,7.50
2019-05-23T01:26:08.510Z,6.80
2019-05-23T01:28:38.211Z,9.13
2019-05-23T01:31:15.934Z,8.13
2019-05-23T01:33:45.359Z,7.63
2019-05-23T01:36:16.142Z,7.57
2019-05-23T01:38:45.665Z,7.13
2019-05-23T01:41:17.053Z,7.03
2019-05-23T01:43:46.427Z,7.90
2019-05-23T01:46:16.369Z,7.07
2019-05-23T01:48:46.698Z,6.87
2019-05-23T01:51:16.678Z,7.17
2019-05-23T02:14:42.571Z,8.33
2019-05-23T02:17:12.873Z,7.37
2019-05-23T02:19:43.522Z,8.73
2019-05-23T02:22:13.246Z,7.90
2019-05-23T02:24:44.286Z,8.67
2019-05-23T02:27:15.128Z,9.37
2019-05-23T02:29:45.142Z,10.20
2019-05-23T02:32:16.474Z,8.40
2019-05-23T02:34:46.015Z,10.53
2019-05-23T02:37:18.046Z,8.97
2019-05-23T02:39:58.199Z,6.87
2019-05-23T02:42:45.295Z,8.60
2019-05-23T02:45:20.476Z,7.63
2019-05-23T02:47:49.977Z,8.10
2019-05-23T02:50:24.001Z,8.37
2019-05-23T02:52:56.380Z,9.07
2019-05-23T02:55:41.122Z,8.90
2019-05-23T02:58:24.385Z,7.37
2019-05-23T03:01:00.009Z,8.50
2019-05-23T03:03:32.479Z,8.47
2019-05-23T03:06:05.066Z,9.53
2019-05-23T03:08:35.956Z,8.87
2019-05-23T03:11:28.322Z,8.30
2019-05-23T03:13:59.802Z,7.63
2019-05-23T03:16:32.427Z,9.63
2019-05-23T03:19:14.119Z,8.60
2019-05-23T03:21:45.446Z,9.07
2019-05-23T03:24:15.013Z,9.27
2019-05-23T03:27:03.931Z,8.77
2019-05-23T03:29:34.470Z,8.53
2019-05-23T03:32:05.921Z,9.07
2019-05-23T03:34:37.031Z,9.20
2019-05-23T03:37:06.907Z,9.00
2019-05-23T03:39:36.514Z,9.70
2019-05-23T03:42:07.796Z,8.20
2019-05-23T03:44:39.083Z,10.63
2019-05-23T03:47:10.570Z,9.80
2019-05-23T03:49:40.316Z,12.87
2019-05-23T03:52:11.232Z,10.23
2019-05-23T03:54:42.616Z,9.20
2019-05-23T03:57:12.134Z,8.60
2019-05-23T03:59:42.287Z,9.70
2019-05-23T04:02:13.494Z,10.23
2019-05-23T04:04:42.875Z,9.40
2019-05-23T04:07:12.836Z,8.53
2019-05-23T04:09:43.393Z,8.97
2019-05-23T04:12:13.360Z,10.67
2019-05-23T04:14:43.137Z,13.57
2019-05-23T04:17:12.577Z,19.07
2019-05-23T04:19:42.220Z,17.77
2019-05-23T04:22:11.662Z,18.50
2019-05-23T04:24:42.304Z,13.03
2019-05-23T04:27:11.841Z,11.78
2019-05-23T04:29:41.188Z,8.93
2019-05-23T04:32:11.147Z,9.57
2019-05-23T04:34:40.717Z,9.73
2019-05-23T04:37:10.312Z,9.47
2019-05-23T04:39:39.680Z,11.83
2019-05-23T04:42:09.316Z,12.87
2019-05-23T04:44:43.480Z,11.50
2019-05-23T04:47:11.642Z,13.33
2019-05-23T04:49:41.650Z,11.57
2019-05-23T04:52:11.403Z,11.37
2019-05-23T04:54:41.748Z,11.73
2019-05-23T04:57:12.861Z,12.43
2019-05-23T04:59:42.298Z,11.73
2019-05-23T05:02:25.774Z,11.95
2019-05-23T05:04:43.299Z,11.27
2019-05-23T05:07:13.015Z,12.43
2019-05-23T05:09:42.566Z,11.83
2019-05-23T05:12:12.283Z,13.93
2019-05-23T05:14:42.172Z,13.27
2019-05-23T05:17:12.027Z,13.70
2019-05-23T05:19:41.899Z,12.97
2019-05-23T05:22:11.695Z,12.07
2019-05-23T05:24:41.160Z,12.47
2019-05-23T05:27:13.327Z,13.20
2019-05-23T05:29:42.758Z,12.63
2019-05-23T05:32:13.867Z,12.70
2019-05-23T05:34:43.256Z,12.73
2019-05-23T05:37:12.623Z,13.23
2019-05-23T05:39:42.002Z,14.60
2019-05-23T05:42:12.233Z,16.73
2019-05-23T05:44:42.362Z,16.17
2019-05-23T05:47:12.350Z,16.77
2019-05-23T05:49:42.498Z,14.00
2019-05-23T05:52:12.715Z,13.93
2019-05-23T05:54:42.083Z,14.83
2019-05-23T05:57:11.736Z,12.67
2019-05-23T05:59:41.608Z,12.03
2019-05-23T06:02:12.849Z,13.63
2019-05-23T06:04:42.379Z,11.50
2019-05-23T06:07:29.721Z,12.40
2019-05-23T06:10:00.761Z,12.53
2019-05-23T06:12:30.123Z,13.50
2019-05-23T06:14:59.514Z,12.97
2019-05-23T06:17:29.422Z,14.73
2019-05-23T06:19:58.818Z,14.20
2019-05-23T06:22:28.229Z,14.23
2019-05-23T06:24:58.282Z,13.80
2019-05-23T06:27:28.072Z,14.27
2019-05-23T06:29:57.778Z,15.10
2019-05-23T06:32:28.841Z,13.47
2019-05-23T06:34:58.375Z,13.93
2019-05-23T06:37:28.421Z,13.62
2019-05-23T06:39:58.055Z,12.33
2019-05-23T06:42:27.570Z,12.53
2019-05-23T06:44:57.890Z,13.50
2019-05-23T06:47:27.435Z,12.37
2019-05-23T06:49:56.800Z,13.90
2019-05-23T06:52:26.183Z,12.10
2019-05-23T06:54:59.611Z,12.67
2019-05-23T06:57:27.224Z,13.00
2019-05-23T06:59:56.731Z,13.40
2019-05-23T07:02:31.530Z,13.50
2019-05-23T07:04:58.770Z,12.83
2019-05-23T07:07:29.257Z,13.63
2019-05-23T07:10:00.767Z,13.93
2019-05-23T07:12:30.629Z,13.93
2019-05-23T07:14:59.990Z,12.73
2019-05-23T07:17:29.848Z,11.83
2019-05-23T07:19:59.801Z,14.27
2019-05-23T07:22:29.428Z,15.40
2019-05-23T07:24:59.295Z,13.87
2019-05-23T07:27:29.612Z,14.90
2019-05-23T07:29:59.042Z,16.13
2019-05-23T07:32:29.113Z,16.20
2019-05-23T07:34:58.471Z,15.37
2019-05-23T07:37:28.094Z,16.30
2019-05-23T07:39:57.632Z,16.73
2019-05-23T07:42:27.364Z,16.33
2019-05-23T07:44:58.542Z,18.47
2019-05-23T07:47:28.074Z,19.33
2019-05-23T07:49:57.433Z,19.03
2019-05-23T07:52:26.809Z,20.20
2019-05-23T07:55:00.819Z,20.07
2019-05-23T07:57:30.347Z,18.33
2019-05-23T07:59:59.783Z,19.23
2019-05-23T08:02:32.255Z,18.13
2019-05-23T08:05:02.098Z,15.87
2019-05-23T08:07:32.982Z,17.67
2019-05-23T08:10:05.223Z,17.70
2019-05-23T08:12:34.666Z,16.30
2019-05-23T08:15:09.164Z,16.03
2019-05-23T08:17:38.749Z,14.27
2019-05-23T08:20:11.387Z,12.63
2019-05-23T08:22:40.931Z,12.87
2019-05-23T08:25:11.643Z,12.80
2019-05-23T08:27:41.456Z,12.83
2019-05-23T08:30:11.504Z,13.40
2019-05-23T08:32:40.879Z,13.03
2019-05-23T08:35:16.331Z,12.63
2019-05-23T08:37:43.195Z,15.00
2019-05-23T08:40:16.179Z,15.10
2019-05-23T08:42:47.072Z,14.17
2019-05-23T08:45:18.851Z,14.23
2019-05-23T08:47:48.259Z,12.93
2019-05-23T08:50:19.332Z,11.93
2019-05-23T08:52:48.670Z,10.40
2019-05-23T08:55:24.468Z,12.20
2019-05-23T08:57:56.502Z,11.30
2019-05-23T09:00:27.707Z,11.00
2019-05-23T09:02:59.277Z,11.47
2019-05-23T09:05:31.586Z,11.73
2019-05-23T09:08:00.965Z,10.93
2019-05-23T09:10:31.194Z,11.83
2019-05-23T09:13:00.943Z,11.33
2019-05-23T09:15:30.527Z,13.13
2019-05-23T09:18:00.114Z,12.03
2019-05-23T09:20:29.856Z,11.83
2019-05-23T09:22:59.231Z,18.83
2019-05-23T09:25:29.119Z,13.30
2019-05-23T09:27:58.825Z,13.50
2019-05-23T09:30:29.902Z,13.63
2019-05-23T09:32:59.551Z,12.37
2019-05-23T09:35:29.174Z,14.60
2019-05-23T09:37:59.069Z,14.93
2019-05-23T09:40:28.970Z,13.70
2019-05-23T09:42:58.564Z,13.03
2019-05-23T09:45:28.176Z,14.17
2019-05-23T09:47:58.149Z,12.23
2019-05-23T09:50:27.603Z,13.27
2019-05-23T09:52:56.970Z,13.47
2019-05-23T09:55:26.447Z,12.00
2019-05-23T09:57:55.824Z,14.80
2019-05-23T10:00:26.933Z,11.73
2019-05-23T10:02:56.502Z,10.70
2019-05-23T10:05:41.538Z,11.10
2019-05-23T10:07:58.416Z,12.47
2019-05-23T10:10:28.369Z,11.00
2019-05-23T10:12:57.733Z,10.70
2019-05-23T10:15:39.493Z,11.37
2019-05-23T10:18:24.132Z,9.57
2019-05-23T10:20:53.596Z,9.00
2019-05-23T10:23:22.972Z,8.93
2019-05-23T10:25:52.397Z,10.73
2019-05-23T10:28:21.814Z,11.77
2019-05-23T10:30:51.202Z,8.70
2019-05-23T10:33:20.647Z,9.20
2019-05-23T10:35:59.707Z,9.33
2019-05-23T10:38:21.139Z,8.60
2019-05-23T10:40:52.420Z,7.70
2019-05-23T10:43:21.960Z,8.30
2019-05-23T10:45:51.727Z,9.20
2019-05-23T10:48:22.546Z,7.63
2019-05-23T10:50:52.378Z,8.37
2019-05-23T10:53:21.881Z,8.80
2019-05-23T10:55:51.259Z,8.17
2019-05-23T10:58:21.553Z,7.83
2019-05-23T11:00:52.557Z,7.93
2019-05-23T11:03:23.273Z,7.90
2019-05-23T11:05:52.674Z,8.77
2019-05-23T11:08:28.214Z,8.53
2019-05-23T11:10:53.823Z,9.50
2019-05-23T11:13:23.450Z,7.50
2019-05-23T11:15:52.897Z,7.40
2019-05-23T11:18:23.798Z,7.03
2019-05-23T11:20:53.463Z,7.67
2019-05-23T11:23:24.475Z,7.80
2019-05-23T11:25:54.173Z,7.40
2019-05-23T11:28:24.045Z,7.53
2019-05-23T11:30:55.055Z,10.00
2019-05-23T11:33:25.270Z,8.83
2019-05-23T11:35:55.067Z,8.47
2019-05-23T11:38:26.065Z,9.33
2019-05-23T11:40:55.451Z,7.43
2019-05-23T11:43:26.941Z,9.30
2019-05-23T11:45:58.027Z,8.70
2019-05-23T11:48:27.758Z,7.63
2019-05-23T11:50:59.312Z,7.63
2019-05-23T11:53:29.388Z,7.33
2019-05-23T11:55:58.766Z,7.43
2019-05-23T11:58:32.118Z,7.43
2019-05-23T12:01:20.559Z,6.47
2019-05-23T12:03:50.241Z,8.03
2019-05-23T12:06:19.755Z,6.80
2019-05-23T12:08:49.130Z,6.53
2019-05-23T12:11:18.779Z,7.07
2019-05-23T12:13:48.163Z,7.30
2019-05-23T12:16:17.660Z,6.70
2019-05-23T12:18:47.449Z,6.17
2019-05-23T12:21:17.185Z,6.27
2019-05-23T12:23:46.614Z,8.23
2019-05-23T12:26:16.519Z,9.50
2019-05-23T12:28:46.061Z,7.63
2019-05-23T12:31:15.466Z,7.53
2019-05-23T12:33:44.869Z,6.17
2019-05-23T12:36:15.116Z,6.17
2019-05-23T12:38:44.494Z,6.63
2019-05-23T12:41:15.553Z,6.47
2019-05-23T12:43:44.927Z,6.03
2019-05-23T12:46:14.318Z,7.60
2019-05-23T12:48:54.523Z,5.93
2019-05-23T12:51:25.676Z,6.13
2019-05-23T12:53:55.067Z,6.27
2019-05-23T12:56:25.063Z,8.23
2019-05-23T12:58:54.985Z,6.40
2019-05-23T13:01:25.080Z,6.93
2019-05-23T13:03:54.753Z,6.00
2019-05-23T13:06:24.256Z,5.77
2019-05-23T13:08:53.598Z,7.80
2019-05-23T13:11:23.674Z,5.63
2019-05-23T13:13:53.038Z,6.47
2019-05-23T13:16:22.771Z,6.77
2019-05-23T13:18:52.188Z,6.30
2019-05-23T13:21:21.562Z,6.03
2019-05-23T13:23:51.026Z,5.40
2019-05-23T13:26:20.425Z,6.57
2019-05-23T13:28:49.850Z,6.37
2019-05-23T13:31:19.393Z,6.63
2019-05-23T13:33:48.916Z,8.10
2019-05-23T13:36:18.295Z,5.30
2019-05-23T13:38:47.710Z,5.17
2019-05-23T13:41:17.158Z,4.93
2019-05-23T13:43:46.521Z,4.60
2019-05-23T13:46:16.223Z,5.07
2019-05-23T13:48:45.942Z,7.57
2019-05-23T13:51:15.387Z,4.40
2019-05-23T13:53:44.757Z,4.90
2019-05-23T13:56:14.202Z,5.40
2019-05-23T13:58:43.689Z,4.93
2019-05-23T14:01:13.138Z,6.77
2019-05-23T14:03:43.441Z,5.13
2019-05-23T14:06:13.262Z,5.97
2019-05-23T14:08:42.749Z,5.50
2019-05-23T14:11:12.408Z,7.13
2019-05-23T14:13:41.890Z,6.20
2019-05-23T14:16:12.078Z,5.97
2019-05-23T14:18:41.600Z,5.53
2019-05-23T14:21:11.409Z,4.80
2019-05-23T14:23:40.771Z,7.37
2019-05-23T14:26:11.861Z,5.20
2019-05-23T14:28:41.463Z,6.90
2019-05-23T14:31:12.556Z,8.73
2019-05-23T14:33:46.281Z,6.40
2019-05-23T14:36:17.346Z,5.60
2019-05-23T14:38:47.043Z,5.70
2019-05-23T14:41:16.887Z,4.77
2019-05-23T14:43:47.904Z,6.27
2019-05-23T14:46:21.749Z,4.60
2019-05-23T14:49:08.145Z,4.30
2019-05-23T14:51:56.304Z,4.87
2019-05-23T14:54:29.748Z,5.30
2019-05-23T14:56:59.550Z,4.80
2019-05-23T14:59:29.856Z,4.47
2019-05-23T15:01:59.406Z,4.43
2019-05-23T15:04:29.010Z,4.97
2019-05-23T15:06:58.354Z,4.67
2019-05-23T15:09:27.741Z,4.83
2019-05-23T15:11:57.110Z,4.50
2019-05-23T15:14:26.483Z,4.40
2019-05-23T15:16:55.863Z,4.50
2019-05-23T15:19:39.068Z,4.47
2019-05-23T15:21:57.062Z,4.57
2019-05-23T15:24:27.413Z,7.07
2019-05-23T15:26:56.781Z,4.90
2019-05-23T15:29:29.224Z,4.07
2019-05-23T15:32:02.547Z,3.27
2019-05-23T15:34:29.062Z,3.57
2019-05-23T15:36:58.664Z,3.63
2019-05-23T15:39:29.163Z,5.63
2019-05-23T15:41:58.596Z,4.00
2019-05-23T15:44:29.979Z,5.70
2019-05-23T15:46:59.155Z,4.67
2019-05-23T15:49:29.323Z,6.93
2019-05-23T15:52:03.044Z,4.30
2019-05-23T15:54:47.498Z,4.37
2019-05-23T15:57:24.384Z,3.47
2019-05-23T16:00:11.927Z,4.00
2019-05-23T16:02:43.021Z,3.63
2019-05-23T16:05:15.472Z,4.43
2019-05-23T16:07:45.803Z,4.23
2019-05-23T16:10:16.536Z,5.20
2019-05-23T16:12:45.889Z,3.80
2019-05-23T16:15:15.661Z,3.60
2019-05-23T16:17:45.287Z,3.97
2019-05-23T16:20:14.811Z,8.40
2019-05-23T16:22:44.653Z,3.60
2019-05-23T16:25:14.516Z,2.87
2019-05-23T16:27:44.056Z,2.97
2019-05-23T16:30:13.766Z,6.17
2019-05-23T16:32:46.390Z,3.60
2019-05-23T16:35:14.455Z,3.43
2019-05-23T16:37:43.936Z,4.30
2019-05-23T16:40:14.667Z,3.37
2019-05-23T16:42:44.045Z,4.00
2019-05-23T16:45:13.745Z,3.07
2019-05-23T16:47:43.260Z,4.77
2019-05-23T16:50:13.270Z,3.70
2019-05-23T16:52:42.653Z,3.50
2019-05-23T16:55:13.827Z,6.13
2019-05-23T16:57:45.108Z,5.07
2019-05-23T17:00:35.371Z,2.97
2019-05-23T17:03:06.912Z,3.23
2019-05-23T17:05:40.787Z,3.43
2019-05-23T17:08:11.877Z,3.50
2019-05-23T17:10:55.111Z,4.37
2019-05-23T17:13:28.704Z,4.00
2019-05-23T17:15:58.888Z,4.53
2019-05-23T17:18:44.981Z,4.43
2019-05-23T17:21:16.057Z,4.53
2019-05-23T17:23:59.161Z,3.90
2019-05-23T17:26:32.699Z,4.87
2019-05-23T17:29:04.344Z,3.00
2019-05-23T17:31:35.418Z,3.17
2019-05-23T17:34:05.023Z,3.50
2019-05-23T17:36:34.387Z,3.93
2019-05-23T17:39:04.888Z,2.57
2019-05-23T17:41:34.346Z,4.13
2019-05-23T17:44:04.204Z,3.70
2019-05-23T17:46:33.651Z,3.30
2019-05-23T17:49:03.021Z,4.20
2019-05-23T17:51:32.542Z,5.63
2019-05-23T17:54:01.947Z,3.83
2019-05-23T17:56:31.447Z,3.50
2019-05-23T17:59:00.853Z,3.67
2019-05-23T18:01:31.964Z,2.40
2019-05-23T18:04:01.573Z,2.77
2019-05-23T18:06:31.685Z,2.67
2019-05-23T18:09:02.161Z,2.67
2019-05-23T18:11:31.525Z,2.30
2019-05-23T18:14:01.069Z,2.80
2019-05-23T18:16:30.458Z,2.40
2019-05-23T18:18:59.913Z,2.70
2019-05-23T18:21:29.406Z,2.90
2019-05-23T18:23:59.772Z,2.93
2019-05-23T18:26:29.156Z,2.60
2019-05-23T18:29:00.456Z,2.73
2019-05-23T18:31:31.555Z,3.00
2019-05-23T18:34:01.552Z,2.67
2019-05-23T18:36:32.172Z,2.70
2019-05-23T18:39:02.278Z,2.67
2019-05-23T18:41:32.583Z,3.03
2019-05-23T18:44:02.036Z,2.83
2019-05-23T18:46:37.798Z,3.03
2019-05-23T18:49:09.183Z,2.87
2019-05-23T18:51:40.154Z,2.90
2019-05-23T18:54:10.187Z,3.07
2019-05-23T18:56:39.822Z,2.93
2019-05-23T18:59:09.933Z,3.37
2019-05-23T19:01:40.013Z,3.13
2019-05-23T19:04:09.669Z,3.17
2019-05-23T19:06:39.366Z,3.70
2019-05-23T19:09:12.163Z,3.77
2019-05-23T19:11:41.778Z,3.60
2019-05-23T19:14:11.428Z,3.13
2019-05-23T19:16:41.400Z,3.20
2019-05-23T19:19:11.399Z,3.30
2019-05-23T19:21:40.836Z,3.53
2019-05-23T19:24:11.100Z,3.30
2019-05-23T19:26:40.903Z,3.10
2019-05-23T19:29:10.964Z,3.27
2019-05-23T19:31:40.833Z,3.17
2019-05-23T19:34:10.392Z,3.10
2019-05-23T19:36:40.695Z,3.67
2019-05-23T19:39:12.967Z,4.37
2019-05-23T19:41:42.771Z,4.00
2019-05-23T19:44:12.373Z,3.40
2019-05-23T19:46:41.917Z,3.70
2019-05-23T19:49:11.524Z,4.17
2019-05-23T19:51:41.457Z,3.47
2019-05-23T19:54:11.207Z,3.60
2019-05-23T19:56:41.576Z,4.00
2019-05-23T19:59:11.001Z,4.13
2019-05-23T20:01:59.035Z,4.00
2019-05-23T20:04:31.449Z,3.90
2019-05-23T20:07:01.064Z,4.17
2019-05-23T20:09:30.875Z,3.90
2019-05-23T20:12:00.428Z,3.70
2019-05-23T20:14:29.932Z,3.40
2019-05-23T20:16:59.384Z,3.17
2019-05-23T20:19:28.751Z,4.40
2019-05-23T20:21:58.119Z,4.20
2019-05-23T20:24:27.855Z,4.70
2019-05-23T20:26:57.510Z,4.13
2019-05-23T20:29:27.221Z,5.50
2019-05-23T20:31:57.346Z,4.13
2019-05-23T20:34:27.005Z,4.20
2019-05-23T20:36:56.533Z,4.33
2019-05-23T20:39:27.284Z,3.93
2019-05-23T20:42:10.207Z,3.53
2019-05-23T20:44:27.828Z,4.10
2019-05-23T20:46:57.839Z,4.60
2019-05-23T20:49:27.516Z,4.33
2019-05-23T20:51:57.002Z,4.03
2019-05-23T20:54:26.381Z,4.00
2019-05-23T20:56:55.749Z,3.90
2019-05-23T20:59:25.127Z,3.97
2019-05-23T21:01:54.851Z,3.40
2019-05-23T21:04:24.228Z,4.07
2019-05-23T21:06:53.975Z,4.20
2019-05-23T21:09:26.098Z,4.50
2019-05-23T21:11:55.551Z,4.23
2019-05-23T21:14:24.929Z,4.60
2019-05-23T21:16:54.377Z,3.97
2019-05-23T21:19:23.746Z,4.40
2019-05-23T21:21:53.108Z,4.93
2019-05-23T21:24:22.495Z,4.43
2019-05-23T21:26:51.921Z,4.47
2019-05-23T21:29:21.292Z,3.80
2019-05-23T21:31:50.760Z,4.30
2019-05-23T21:34:22.227Z,4.17
2019-05-23T21:36:51.304Z,4.70
2019-05-23T21:39:21.318Z,3.93
2019-05-23T21:41:50.677Z,4.67
2019-05-23T21:44:20.033Z,4.80
2019-05-23T21:46:49.490Z,5.00
2019-05-23T21:49:18.891Z,5.70
2019-05-23T21:51:51.596Z,5.07
2019-05-23T21:54:19.972Z,4.83
2019-05-23T21:56:49.397Z,4.60
2019-05-23T21:59:18.928Z,4.83
2019-05-23T22:01:52.863Z,5.03
2019-05-23T22:04:26.596Z,4.90
2019-05-23T22:06:58.096Z,4.60
2019-05-23T22:09:28.262Z,3.67
2019-05-23T22:11:57.695Z,4.23
2019-05-23T22:14:27.063Z,4.33
2019-05-23T22:16:56.516Z,4.47
2019-05-23T22:19:27.109Z,4.83
2019-05-23T22:21:56.472Z,4.87
2019-05-23T22:24:26.036Z,4.63
2019-05-23T22:26:55.537Z,4.30
2019-05-23T22:29:25.062Z,4.00
2019-05-23T22:31:56.552Z,3.90
2019-05-23T22:34:36.420Z,4.63
2019-05-23T22:37:07.684Z,4.90
2019-05-23T22:39:37.289Z,4.33
2019-05-23T22:42:06.744Z,5.30
2019-05-23T22:44:36.201Z,5.10
2019-05-23T22:47:05.570Z,5.53
2019-05-23T22:49:35.010Z,4.87
2019-05-23T22:52:04.559Z,5.40
2019-05-23T22:54:33.926Z,5.63
2019-05-23T22:57:03.349Z,4.53
2019-05-23T22:59:32.825Z,4.00
2019-05-23T23:02:03.062Z,5.83
2019-05-23T23:04:32.419Z,5.33
2019-05-23T23:07:01.818Z,4.97
2019-05-23T23:09:31.249Z,4.53
2019-05-23T23:12:01.073Z,5.50
2019-05-23T23:14:30.472Z,5.23
2019-05-23T23:17:01.572Z,4.73
2019-05-23T23:19:30.947Z,5.47
2019-05-23T23:22:00.330Z,6.33
2019-05-23T23:24:29.708Z,4.97
2019-05-23T23:26:59.080Z,5.80
2019-05-23T23:29:28.529Z,5.97
2019-05-23T23:31:57.879Z,5.07
2019-05-23T23:34:27.254Z,5.27
2019-05-23T23:36:56.687Z,5.43
2019-05-23T23:39:26.117Z,5.00
2019-05-23T23:41:55.486Z,5.50
2019-05-23T23:44:26.507Z,4.87
2019-05-23T23:47:13.932Z,5.70
2019-05-23T23:50:01.172Z,5.23
2019-05-23T23:52:49.236Z,4.43
2019-05-23T23:55:36.724Z,4.78
2019-05-23T23:58:05.536Z,3.90
